sensor_id;sensor_type;location;lat;lon;timestamp;P1;durP1;ratioP1;P2;durP2;ratioP2
80694;SDS011;70059;42.702;23.312;2023-12-20T00:02:40;239.85;;;119.35;;
80694;SDS011;70059;42.702;23.312;2023-12-20T00:05:18;233.57;;;114.47;;
80694;SDS011;70059;42.702;23.312;2023-12-20T00:08:15;235.40;;;120.90;;
80694;SDS011;70059;42.702;23.312;2023-12-20T00:11:20;256.60;;;125.38;;
80694;SDS011;70059;42.702;23.312;2023-12-20T00:14:29;237.05;;;115.32;;
80694;SDS011;70059;42.702;23.312;2023-12-20T00:21:06;227.43;;;117.00;;
80694;SDS011;70059;42.702;23.312;2023-12-20T00:26:59;227.82;;;115.60;;
80694;SDS011;70059;42.702;23.312;2023-12-20T00:33:29;242.60;;;122.30;;
80694;SDS011;70059;42.702;23.312;2023-12-20T00:36:31;237.32;;;120.68;;
80694;SDS011;70059;42.702;23.312;2023-12-20T00:39:15;230.07;;;115.18;;
80694;SDS011;70059;42.702;23.312;2023-12-20T00:42:20;231.60;;;119.70;;
80694;SDS011;70059;42.702;23.312;2023-12-20T00:45:28;231.70;;;115.60;;
80694;SDS011;70059;42.702;23.312;2023-12-20T00:48:03;238.98;;;119.60;;
80694;SDS011;70059;42.702;23.312;2023-12-20T01:03:39;229.30;;;112.78;;
80694;SDS011;70059;42.702;23.312;2023-12-20T01:06:30;234.07;;;119.70;;
80694;SDS011;70059;42.702;23.312;2023-12-20T01:15:31;246.20;;;121.82;;
80694;SDS011;70059;42.702;23.312;2023-12-20T01:28:12;238.57;;;121.68;;
80694;SDS011;70059;42.702;23.312;2023-12-20T01:34:56;248.02;;;123.05;;
80694;SDS011;70059;42.702;23.312;2023-12-20T01:37:28;241.77;;;126.93;;
80694;SDS011;70059;42.702;23.312;2023-12-20T01:40:52;246.48;;;119.00;;
80694;SDS011;70059;42.702;23.312;2023-12-20T01:44:02;244.23;;;122.35;;
80694;SDS011;70059;42.702;23.312;2023-12-20T01:46:41;242.63;;;119.85;;
80694;SDS011;70059;42.702;23.312;2023-12-20T01:49:39;238.88;;;116.60;;
80694;SDS011;70059;42.702;23.312;2023-12-20T01:52:41;226.82;;;114.05;;
80694;SDS011;70059;42.702;23.312;2023-12-20T02:02:33;230.45;;;113.45;;
80694;SDS011;70059;42.702;23.312;2023-12-20T02:09:07;218.90;;;107.60;;
80694;SDS011;70059;42.702;23.312;2023-12-20T02:15:57;217.55;;;107.18;;
80694;SDS011;70059;42.702;23.312;2023-12-20T02:18:54;224.05;;;111.72;;
80694;SDS011;70059;42.702;23.312;2023-12-20T02:21:42;217.93;;;109.90;;
80694;SDS011;70059;42.702;23.312;2023-12-20T02:24:41;219.32;;;108.70;;
80694;SDS011;70059;42.702;23.312;2023-12-20T02:27:33;211.32;;;104.60;;
80694;SDS011;70059;42.702;23.312;2023-12-20T02:30:10;203.73;;;101.75;;
80694;SDS011;70059;42.702;23.312;2023-12-20T02:39:05;171.30;;;77.93;;
80694;SDS011;70059;42.702;23.312;2023-12-20T02:42:08;151.55;;;69.03;;
80694;SDS011;70059;42.702;23.312;2023-12-20T02:54:39;148.70;;;64.88;;
80694;SDS011;70059;42.702;23.312;2023-12-20T02:57:40;139.18;;;63.97;;
80694;SDS011;70059;42.702;23.312;2023-12-20T03:00:58;126.50;;;58.00;;
80694;SDS011;70059;42.702;23.312;2023-12-20T03:07:32;136.15;;;60.50;;
80694;SDS011;70059;42.702;23.312;2023-12-20T03:10:13;146.30;;;62.13;;
80694;SDS011;70059;42.702;23.312;2023-12-20T03:12:52;165.15;;;68.90;;
80694;SDS011;70059;42.702;23.312;2023-12-20T03:18:15;135.45;;;58.47;;
80694;SDS011;70059;42.702;23.312;2023-12-20T03:24:27;140.02;;;57.90;;
80694;SDS011;70059;42.702;23.312;2023-12-20T03:27:05;149.32;;;59.13;;
80694;SDS011;70059;42.702;23.312;2023-12-20T03:29:39;142.88;;;58.03;;
80694;SDS011;70059;42.702;23.312;2023-12-20T03:32:26;164.65;;;65.00;;
80694;SDS011;70059;42.702;23.312;2023-12-20T03:35:20;147.45;;;60.22;;
80694;SDS011;70059;42.702;23.312;2023-12-20T03:38:17;148.98;;;59.30;;
80694;SDS011;70059;42.702;23.312;2023-12-20T03:40:54;138.95;;;57.10;;
80694;SDS011;70059;42.702;23.312;2023-12-20T03:43:29;143.10;;;59.30;;
80694;SDS011;70059;42.702;23.312;2023-12-20T03:46:19;148.20;;;59.10;;
80694;SDS011;70059;42.702;23.312;2023-12-20T03:49:14;163.07;;;61.13;;
80694;SDS011;70059;42.702;23.312;2023-12-20T03:51:51;157.80;;;60.13;;
80694;SDS011;70059;42.702;23.312;2023-12-20T03:54:25;140.52;;;56.22;;
80694;SDS011;70059;42.702;23.312;2023-12-20T03:57:01;150.68;;;57.22;;
80694;SDS011;70059;42.702;23.312;2023-12-20T03:59:45;137.73;;;55.90;;
80694;SDS011;70059;42.702;23.312;2023-12-20T04:02:35;141.75;;;56.92;;
80694;SDS011;70059;42.702;23.312;2023-12-20T04:18:17;143.50;;;54.90;;
80694;SDS011;70059;42.702;23.312;2023-12-20T04:21:34;154.85;;;52.92;;
80694;SDS011;70059;42.702;23.312;2023-12-20T04:34:18;242.65;;;74.20;;
80694;SDS011;70059;42.702;23.312;2023-12-20T04:36:44;286.20;;;85.00;;
80694;SDS011;70059;42.702;23.312;2023-12-20T04:39:11;237.63;;;82.22;;
80694;SDS011;70059;42.702;23.312;2023-12-20T04:41:37;229.05;;;85.57;;
80694;SDS011;70059;42.702;23.312;2023-12-20T04:44:03;233.18;;;79.50;;
80694;SDS011;70059;42.702;23.312;2023-12-20T04:46:29;212.57;;;76.28;;
80694;SDS011;70059;42.702;23.312;2023-12-20T04:48:54;239.43;;;84.78;;
80694;SDS011;70059;42.702;23.312;2023-12-20T04:51:20;221.15;;;80.93;;
80694;SDS011;70059;42.702;23.312;2023-12-20T04:53:46;239.10;;;85.55;;
80694;SDS011;70059;42.702;23.312;2023-12-20T04:56:12;238.60;;;85.30;;
80694;SDS011;70059;42.702;23.312;2023-12-20T04:58:37;231.73;;;77.95;;
80694;SDS011;70059;42.702;23.312;2023-12-20T05:01:03;254.20;;;89.70;;
80694;SDS011;70059;42.702;23.312;2023-12-20T05:03:31;245.15;;;84.65;;
80694;SDS011;70059;42.702;23.312;2023-12-20T05:05:57;223.32;;;89.72;;
80694;SDS011;70059;42.702;23.312;2023-12-20T05:08:23;224.25;;;81.03;;
80694;SDS011;70059;42.702;23.312;2023-12-20T05:10:50;189.60;;;77.75;;
80694;SDS011;70059;42.702;23.312;2023-12-20T05:13:17;195.30;;;72.78;;
80694;SDS011;70059;42.702;23.312;2023-12-20T05:15:43;166.93;;;60.63;;
80694;SDS011;70059;42.702;23.312;2023-12-20T05:18:09;172.30;;;64.97;;
80694;SDS011;70059;42.702;23.312;2023-12-20T05:20:34;176.30;;;65.32;;
80694;SDS011;70059;42.702;23.312;2023-12-20T05:26:08;216.57;;;65.60;;
80694;SDS011;70059;42.702;23.312;2023-12-20T05:28:37;213.85;;;77.10;;
80694;SDS011;70059;42.702;23.312;2023-12-20T05:31:06;169.18;;;61.05;;
80694;SDS011;70059;42.702;23.312;2023-12-20T05:33:38;179.75;;;61.78;;
80694;SDS011;70059;42.702;23.312;2023-12-20T05:36:11;174.88;;;66.30;;
80694;SDS011;70059;42.702;23.312;2023-12-20T05:38:53;159.90;;;63.10;;
80694;SDS011;70059;42.702;23.312;2023-12-20T05:41:42;153.02;;;59.80;;
80694;SDS011;70059;42.702;23.312;2023-12-20T05:44:07;146.57;;;59.35;;
80694;SDS011;70059;42.702;23.312;2023-12-20T05:46:33;157.13;;;55.95;;
80694;SDS011;70059;42.702;23.312;2023-12-20T05:48:59;177.02;;;57.90;;
80694;SDS011;70059;42.702;23.312;2023-12-20T05:51:25;165.32;;;62.40;;
80694;SDS011;70059;42.702;23.312;2023-12-20T05:53:53;191.63;;;65.50;;
80694;SDS011;70059;42.702;23.312;2023-12-20T05:56:18;164.32;;;57.28;;
80694;SDS011;70059;42.702;23.312;2023-12-20T05:58:47;172.27;;;63.25;;
80694;SDS011;70059;42.702;23.312;2023-12-20T06:01:55;164.50;;;57.03;;
80694;SDS011;70059;42.702;23.312;2023-12-20T06:04:06;151.70;;;56.47;;
80694;SDS011;70059;42.702;23.312;2023-12-20T06:06:41;157.25;;;58.85;;
80694;SDS011;70059;42.702;23.312;2023-12-20T06:09:07;151.18;;;59.20;;
80694;SDS011;70059;42.702;23.312;2023-12-20T06:11:38;158.23;;;56.92;;
80694;SDS011;70059;42.702;23.312;2023-12-20T06:14:16;148.45;;;57.50;;
80694;SDS011;70059;42.702;23.312;2023-12-20T06:16:54;127.30;;;53.63;;
80694;SDS011;70059;42.702;23.312;2023-12-20T06:19:22;142.20;;;55.35;;
80694;SDS011;70059;42.702;23.312;2023-12-20T06:21:57;156.52;;;58.80;;
80694;SDS011;70059;42.702;23.312;2023-12-20T06:24:44;138.23;;;54.92;;
80694;SDS011;70059;42.702;23.312;2023-12-20T06:27:31;163.43;;;58.85;;
80694;SDS011;70059;42.702;23.312;2023-12-20T06:29:59;167.55;;;62.83;;
80694;SDS011;70059;42.702;23.312;2023-12-20T06:32:34;178.07;;;61.42;;
80694;SDS011;70059;42.702;23.312;2023-12-20T06:37:26;168.63;;;61.90;;
80694;SDS011;70059;42.702;23.312;2023-12-20T06:40:00;169.02;;;64.28;;
80694;SDS011;70059;42.702;23.312;2023-12-20T06:42:32;167.15;;;59.67;;
80694;SDS011;70059;42.702;23.312;2023-12-20T06:45:10;179.15;;;62.42;;
80694;SDS011;70059;42.702;23.312;2023-12-20T06:47:57;183.43;;;64.22;;
80694;SDS011;70059;42.702;23.312;2023-12-20T06:51:14;168.63;;;64.07;;
80694;SDS011;70059;42.702;23.312;2023-12-20T06:53:56;191.85;;;65.78;;
80694;SDS011;70059;42.702;23.312;2023-12-20T06:56:22;184.43;;;65.38;;
80694;SDS011;70059;42.702;23.312;2023-12-20T07:02:18;176.82;;;63.05;;
80694;SDS011;70059;42.702;23.312;2023-12-20T07:04:47;175.88;;;66.80;;
80694;SDS011;70059;42.702;23.312;2023-12-20T07:14:24;188.98;;;74.25;;
80694;SDS011;70059;42.702;23.312;2023-12-20T07:16:50;181.20;;;67.70;;
80694;SDS011;70059;42.702;23.312;2023-12-20T07:19:15;193.98;;;69.30;;
80694;SDS011;70059;42.702;23.312;2023-12-20T07:21:41;172.30;;;71.65;;
80694;SDS011;70059;42.702;23.312;2023-12-20T07:24:10;166.50;;;65.60;;
80694;SDS011;70059;42.702;23.312;2023-12-20T07:26:36;167.55;;;68.65;;
80694;SDS011;70059;42.702;23.312;2023-12-20T07:29:03;171.07;;;70.05;;
80694;SDS011;70059;42.702;23.312;2023-12-20T07:31:32;184.15;;;68.00;;
80694;SDS011;70059;42.702;23.312;2023-12-20T07:34:00;178.63;;;67.97;;
80694;SDS011;70059;42.702;23.312;2023-12-20T07:36:31;170.13;;;66.45;;
80694;SDS011;70059;42.702;23.312;2023-12-20T07:39:04;173.13;;;68.50;;
80694;SDS011;70059;42.702;23.312;2023-12-20T07:41:51;153.73;;;62.75;;
80694;SDS011;70059;42.702;23.312;2023-12-20T07:44:28;151.15;;;59.33;;
80694;SDS011;70059;42.702;23.312;2023-12-20T07:46:58;158.90;;;61.35;;
80694;SDS011;70059;42.702;23.312;2023-12-20T07:49:26;149.82;;;63.08;;
80694;SDS011;70059;42.702;23.312;2023-12-20T07:52:02;147.52;;;55.85;;
80694;SDS011;70059;42.702;23.312;2023-12-20T07:54:29;128.70;;;51.45;;
80694;SDS011;70059;42.702;23.312;2023-12-20T07:56:58;114.53;;;50.20;;
80694;SDS011;70059;42.702;23.312;2023-12-20T07:59:24;100.55;;;49.05;;
80694;SDS011;70059;42.702;23.312;2023-12-20T08:01:56;113.72;;;54.03;;
80694;SDS011;70059;42.702;23.312;2023-12-20T08:04:24;116.05;;;55.78;;
80694;SDS011;70059;42.702;23.312;2023-12-20T08:06:53;104.80;;;52.47;;
80694;SDS011;70059;42.702;23.312;2023-12-20T08:09:26;106.15;;;52.00;;
80694;SDS011;70059;42.702;23.312;2023-12-20T08:11:57;119.35;;;58.92;;
80694;SDS011;70059;42.702;23.312;2023-12-20T08:14:24;124.00;;;63.25;;
80694;SDS011;70059;42.702;23.312;2023-12-20T08:16:50;123.90;;;65.68;;
80694;SDS011;70059;42.702;23.312;2023-12-20T08:19:16;131.20;;;65.28;;
80694;SDS011;70059;42.702;23.312;2023-12-20T08:21:47;138.65;;;65.60;;
80694;SDS011;70059;42.702;23.312;2023-12-20T08:24:13;138.93;;;65.70;;
80694;SDS011;70059;42.702;23.312;2023-12-20T08:26:46;144.00;;;68.20;;
80694;SDS011;70059;42.702;23.312;2023-12-20T08:29:17;157.02;;;70.00;;
80694;SDS011;70059;42.702;23.312;2023-12-20T08:31:44;162.55;;;70.97;;
80694;SDS011;70059;42.702;23.312;2023-12-20T08:34:12;164.93;;;69.47;;
80694;SDS011;70059;42.702;23.312;2023-12-20T08:36:41;159.40;;;68.93;;
80694;SDS011;70059;42.702;23.312;2023-12-20T08:39:07;151.32;;;68.95;;
80694;SDS011;70059;42.702;23.312;2023-12-20T08:41:33;161.88;;;67.93;;
80694;SDS011;70059;42.702;23.312;2023-12-20T08:44:01;168.32;;;70.82;;
80694;SDS011;70059;42.702;23.312;2023-12-20T08:46:28;161.02;;;66.00;;
80694;SDS011;70059;42.702;23.312;2023-12-20T08:49:16;155.23;;;65.70;;
80694;SDS011;70059;42.702;23.312;2023-12-20T08:51:42;162.32;;;66.70;;
80694;SDS011;70059;42.702;23.312;2023-12-20T08:54:09;163.70;;;67.90;;
80694;SDS011;70059;42.702;23.312;2023-12-20T08:56:44;152.80;;;63.33;;
80694;SDS011;70059;42.702;23.312;2023-12-20T08:59:11;148.95;;;60.53;;
80694;SDS011;70059;42.702;23.312;2023-12-20T09:11:56;158.95;;;71.05;;
80694;SDS011;70059;42.702;23.312;2023-12-20T09:14:22;135.50;;;59.70;;
80694;SDS011;70059;42.702;23.312;2023-12-20T09:16:48;159.50;;;64.78;;
80694;SDS011;70059;42.702;23.312;2023-12-20T09:19:19;157.25;;;66.63;;
80694;SDS011;70059;42.702;23.312;2023-12-20T09:21:44;152.80;;;69.32;;
80694;SDS011;70059;42.702;23.312;2023-12-20T09:24:13;169.77;;;73.80;;
80694;SDS011;70059;42.702;23.312;2023-12-20T09:26:40;155.27;;;74.97;;
80694;SDS011;70059;42.702;23.312;2023-12-20T09:29:13;166.45;;;73.07;;
80694;SDS011;70059;42.702;23.312;2023-12-20T09:31:43;164.77;;;72.95;;
80694;SDS011;70059;42.702;23.312;2023-12-20T09:34:15;159.57;;;74.88;;
80694;SDS011;70059;42.702;23.312;2023-12-20T09:36:42;137.00;;;65.03;;
80694;SDS011;70059;42.702;23.312;2023-12-20T09:39:21;147.85;;;67.55;;
80694;SDS011;70059;42.702;23.312;2023-12-20T09:42:06;163.93;;;75.65;;
80694;SDS011;70059;42.702;23.312;2023-12-20T09:44:53;175.23;;;81.35;;
80694;SDS011;70059;42.702;23.312;2023-12-20T09:47:20;171.23;;;81.18;;
80694;SDS011;70059;42.702;23.312;2023-12-20T09:49:51;174.65;;;81.45;;
80694;SDS011;70059;42.702;23.312;2023-12-20T09:52:18;168.27;;;77.80;;
80694;SDS011;70059;42.702;23.312;2023-12-20T09:54:44;162.45;;;78.57;;
80694;SDS011;70059;42.702;23.312;2023-12-20T09:57:18;177.35;;;83.75;;
80694;SDS011;70059;42.702;23.312;2023-12-20T09:59:43;177.85;;;82.10;;
80694;SDS011;70059;42.702;23.312;2023-12-20T10:02:18;155.32;;;74.70;;
80694;SDS011;70059;42.702;23.312;2023-12-20T10:04:54;161.82;;;79.07;;
80694;SDS011;70059;42.702;23.312;2023-12-20T10:07:19;161.73;;;74.00;;
80694;SDS011;70059;42.702;23.312;2023-12-20T10:10:07;164.80;;;78.72;;
80694;SDS011;70059;42.702;23.312;2023-12-20T10:12:37;156.75;;;77.18;;
80694;SDS011;70059;42.702;23.312;2023-12-20T10:15:03;146.93;;;70.05;;
80694;SDS011;70059;42.702;23.312;2023-12-20T10:17:29;156.38;;;78.07;;
80694;SDS011;70059;42.702;23.312;2023-12-20T10:19:55;160.60;;;80.40;;
80694;SDS011;70059;42.702;23.312;2023-12-20T10:22:27;155.50;;;77.55;;
80694;SDS011;70059;42.702;23.312;2023-12-20T10:24:53;161.57;;;79.97;;
80694;SDS011;70059;42.702;23.312;2023-12-20T10:27:30;140.93;;;68.55;;
80694;SDS011;70059;42.702;23.312;2023-12-20T10:29:58;152.27;;;80.57;;
80694;SDS011;70059;42.702;23.312;2023-12-20T10:32:26;154.48;;;81.57;;
80694;SDS011;70059;42.702;23.312;2023-12-20T10:34:53;158.27;;;79.95;;
80694;SDS011;70059;42.702;23.312;2023-12-20T10:37:22;157.93;;;87.72;;
80694;SDS011;70059;42.702;23.312;2023-12-20T10:39:52;157.13;;;85.32;;
80694;SDS011;70059;42.702;23.312;2023-12-20T10:42:26;156.57;;;83.25;;
80694;SDS011;70059;42.702;23.312;2023-12-20T10:44:52;166.05;;;91.78;;
80694;SDS011;70059;42.702;23.312;2023-12-20T10:47:41;167.13;;;90.82;;
80694;SDS011;70059;42.702;23.312;2023-12-20T10:50:11;176.57;;;94.25;;
80694;SDS011;70059;42.702;23.312;2023-12-20T10:52:37;158.25;;;89.53;;
80694;SDS011;70059;42.702;23.312;2023-12-20T10:55:03;171.00;;;91.75;;
80694;SDS011;70059;42.702;23.312;2023-12-20T10:57:30;162.85;;;88.85;;
80694;SDS011;70059;42.702;23.312;2023-12-20T10:59:59;173.98;;;92.22;;
80694;SDS011;70059;42.702;23.312;2023-12-20T11:02:32;156.82;;;79.70;;
80694;SDS011;70059;42.702;23.312;2023-12-20T11:14:48;166.63;;;87.95;;
80694;SDS011;70059;42.702;23.312;2023-12-20T11:17:20;168.48;;;86.30;;
80694;SDS011;70059;42.702;23.312;2023-12-20T11:32:02;181.13;;;85.53;;
80694;SDS011;70059;42.702;23.312;2023-12-20T11:34:56;176.73;;;81.82;;
80694;SDS011;70059;42.702;23.312;2023-12-20T11:37:46;173.65;;;80.90;;
80694;SDS011;70059;42.702;23.312;2023-12-20T11:40:13;180.63;;;85.05;;
80694;SDS011;70059;42.702;23.312;2023-12-20T11:45:33;183.50;;;80.70;;
80694;SDS011;70059;42.702;23.312;2023-12-20T11:48:00;170.05;;;73.70;;
80694;SDS011;70059;42.702;23.312;2023-12-20T11:50:27;171.57;;;73.70;;
80694;SDS011;70059;42.702;23.312;2023-12-20T11:52:55;166.68;;;71.30;;
80694;SDS011;70059;42.702;23.312;2023-12-20T11:55:24;152.93;;;68.18;;
80694;SDS011;70059;42.702;23.312;2023-12-20T11:57:51;167.52;;;69.28;;
80694;SDS011;70059;42.702;23.312;2023-12-20T12:00:17;172.63;;;74.80;;
80694;SDS011;70059;42.702;23.312;2023-12-20T12:02:57;158.48;;;69.35;;
80694;SDS011;70059;42.702;23.312;2023-12-20T12:05:23;144.05;;;65.57;;
80694;SDS011;70059;42.702;23.312;2023-12-20T12:07:50;152.18;;;65.60;;
80694;SDS011;70059;42.702;23.312;2023-12-20T12:10:16;156.93;;;67.85;;
80694;SDS011;70059;42.702;23.312;2023-12-20T12:16:08;156.52;;;69.47;;
80694;SDS011;70059;42.702;23.312;2023-12-20T12:18:35;150.90;;;69.88;;
80694;SDS011;70059;42.702;23.312;2023-12-20T12:21:01;156.13;;;69.05;;
80694;SDS011;70059;42.702;23.312;2023-12-20T12:23:29;149.50;;;70.40;;
80694;SDS011;70059;42.702;23.312;2023-12-20T12:25:56;155.05;;;69.40;;
80694;SDS011;70059;42.702;23.312;2023-12-20T12:28:26;156.50;;;72.90;;
80694;SDS011;70059;42.702;23.312;2023-12-20T12:31:00;153.30;;;70.78;;
80694;SDS011;70059;42.702;23.312;2023-12-20T12:33:26;143.95;;;67.38;;
80694;SDS011;70059;42.702;23.312;2023-12-20T12:35:53;142.23;;;67.70;;
80694;SDS011;70059;42.702;23.312;2023-12-20T12:38:28;147.73;;;67.30;;
80694;SDS011;70059;42.702;23.312;2023-12-20T12:40:57;142.80;;;66.53;;
80694;SDS011;70059;42.702;23.312;2023-12-20T12:43:26;135.60;;;66.10;;
80694;SDS011;70059;42.702;23.312;2023-12-20T12:45:52;149.52;;;66.30;;
80694;SDS011;70059;42.702;23.312;2023-12-20T12:48:18;146.55;;;71.15;;
80694;SDS011;70059;42.702;23.312;2023-12-20T12:50:45;139.63;;;63.75;;
80694;SDS011;70059;42.702;23.312;2023-12-20T12:53:11;135.20;;;62.92;;
80694;SDS011;70059;42.702;23.312;2023-12-20T12:55:37;127.43;;;59.10;;
80694;SDS011;70059;42.702;23.312;2023-12-20T12:58:03;135.98;;;65.30;;
80694;SDS011;70059;42.702;23.312;2023-12-20T13:00:29;145.07;;;63.33;;
80694;SDS011;70059;42.702;23.312;2023-12-20T13:05:47;146.15;;;62.42;;
80694;SDS011;70059;42.702;23.312;2023-12-20T13:08:18;127.20;;;61.50;;
80694;SDS011;70059;42.702;23.312;2023-12-20T13:10:45;123.68;;;59.67;;
80694;SDS011;70059;42.702;23.312;2023-12-20T13:13:11;134.93;;;63.28;;
80694;SDS011;70059;42.702;23.312;2023-12-20T13:15:37;129.65;;;60.92;;
80694;SDS011;70059;42.702;23.312;2023-12-20T13:18:06;139.20;;;65.38;;
80694;SDS011;70059;42.702;23.312;2023-12-20T13:20:36;136.95;;;63.33;;
80694;SDS011;70059;42.702;23.312;2023-12-20T13:23:05;131.18;;;62.55;;
80694;SDS011;70059;42.702;23.312;2023-12-20T13:25:31;135.45;;;63.38;;
80694;SDS011;70059;42.702;23.312;2023-12-20T13:27:58;140.10;;;62.63;;
80694;SDS011;70059;42.702;23.312;2023-12-20T13:30:24;135.70;;;62.28;;
80694;SDS011;70059;42.702;23.312;2023-12-20T13:32:50;142.30;;;65.32;;
80694;SDS011;70059;42.702;23.312;2023-12-20T13:35:17;144.75;;;60.78;;
80694;SDS011;70059;42.702;23.312;2023-12-20T13:37:46;145.02;;;62.53;;
80694;SDS011;70059;42.702;23.312;2023-12-20T13:40:12;144.77;;;62.22;;
80694;SDS011;70059;42.702;23.312;2023-12-20T13:42:39;142.98;;;60.22;;
80694;SDS011;70059;42.702;23.312;2023-12-20T13:45:05;137.23;;;60.00;;
80694;SDS011;70059;42.702;23.312;2023-12-20T13:47:33;148.88;;;59.33;;
80694;SDS011;70059;42.702;23.312;2023-12-20T13:50:08;148.40;;;57.42;;
80694;SDS011;70059;42.702;23.312;2023-12-20T13:52:49;142.10;;;56.20;;
80694;SDS011;70059;42.702;23.312;2023-12-20T13:55:17;148.10;;;57.53;;
80694;SDS011;70059;42.702;23.312;2023-12-20T13:57:51;134.40;;;55.13;;
80694;SDS011;70059;42.702;23.312;2023-12-20T14:00:17;152.88;;;58.60;;
80694;SDS011;70059;42.702;23.312;2023-12-20T14:02:52;164.02;;;62.85;;
80694;SDS011;70059;42.702;23.312;2023-12-20T14:05:21;165.57;;;63.55;;
80694;SDS011;70059;42.702;23.312;2023-12-20T14:07:48;158.63;;;63.88;;
80694;SDS011;70059;42.702;23.312;2023-12-20T14:10:15;153.82;;;60.58;;
80694;SDS011;70059;42.702;23.312;2023-12-20T14:12:41;153.57;;;58.42;;
80694;SDS011;70059;42.702;23.312;2023-12-20T14:15:07;152.50;;;59.15;;
80694;SDS011;70059;42.702;23.312;2023-12-20T14:17:36;155.93;;;58.83;;
80694;SDS011;70059;42.702;23.312;2023-12-20T14:20:05;161.07;;;60.63;;
80694;SDS011;70059;42.702;23.312;2023-12-20T14:22:34;159.37;;;59.90;;
80694;SDS011;70059;42.702;23.312;2023-12-20T14:25:01;147.50;;;57.42;;
80694;SDS011;70059;42.702;23.312;2023-12-20T14:27:27;166.52;;;60.30;;
80694;SDS011;70059;42.702;23.312;2023-12-20T14:29:53;163.65;;;58.60;;
80694;SDS011;70059;42.702;23.312;2023-12-20T14:32:19;164.57;;;60.72;;
80694;SDS011;70059;42.702;23.312;2023-12-20T14:34:45;151.98;;;59.55;;
80694;SDS011;70059;42.702;23.312;2023-12-20T14:37:11;164.10;;;62.65;;
80694;SDS011;70059;42.702;23.312;2023-12-20T14:39:37;162.07;;;58.13;;
80694;SDS011;70059;42.702;23.312;2023-12-20T14:42:07;153.38;;;58.08;;
80694;SDS011;70059;42.702;23.312;2023-12-20T14:44:37;161.20;;;61.95;;
80694;SDS011;70059;42.702;23.312;2023-12-20T14:47:08;160.90;;;64.40;;
80694;SDS011;70059;42.702;23.312;2023-12-20T14:50:03;175.38;;;66.95;;
80694;SDS011;70059;42.702;23.312;2023-12-20T14:52:44;182.83;;;68.10;;
80694;SDS011;70059;42.702;23.312;2023-12-20T14:55:10;197.32;;;76.07;;
80694;SDS011;70059;42.702;23.312;2023-12-20T14:57:40;214.00;;;78.53;;
80694;SDS011;70059;42.702;23.312;2023-12-20T15:00:06;220.30;;;84.00;;
80694;SDS011;70059;42.702;23.312;2023-12-20T15:02:35;222.77;;;85.78;;
80694;SDS011;70059;42.702;23.312;2023-12-20T15:05:01;223.52;;;83.78;;
80694;SDS011;70059;42.702;23.312;2023-12-20T15:07:27;226.93;;;87.03;;
80694;SDS011;70059;42.702;23.312;2023-12-20T15:09:53;216.55;;;83.75;;
80694;SDS011;70059;42.702;23.312;2023-12-20T15:12:19;209.52;;;79.45;;
80694;SDS011;70059;42.702;23.312;2023-12-20T15:14:48;227.15;;;84.78;;
80694;SDS011;70059;42.702;23.312;2023-12-20T15:17:17;205.23;;;83.18;;
80694;SDS011;70059;42.702;23.312;2023-12-20T15:19:44;233.52;;;88.03;;
80694;SDS011;70059;42.702;23.312;2023-12-20T15:22:10;236.32;;;88.03;;
80694;SDS011;70059;42.702;23.312;2023-12-20T15:24:38;240.55;;;90.75;;
80694;SDS011;70059;42.702;23.312;2023-12-20T15:27:07;217.73;;;85.90;;
80694;SDS011;70059;42.702;23.312;2023-12-20T15:29:33;227.00;;;91.18;;
80694;SDS011;70059;42.702;23.312;2023-12-20T15:32:02;249.23;;;89.38;;
80694;SDS011;70059;42.702;23.312;2023-12-20T15:34:31;247.00;;;92.68;;
80694;SDS011;70059;42.702;23.312;2023-12-20T15:36:57;250.70;;;90.63;;
80694;SDS011;70059;42.702;23.312;2023-12-20T15:39:23;234.77;;;90.57;;
80694;SDS011;70059;42.702;23.312;2023-12-20T15:41:50;227.90;;;89.10;;
80694;SDS011;70059;42.702;23.312;2023-12-20T15:44:19;249.13;;;93.55;;
80694;SDS011;70059;42.702;23.312;2023-12-20T15:46:45;257.90;;;96.43;;
80694;SDS011;70059;42.702;23.312;2023-12-20T15:49:11;272.25;;;99.50;;
80694;SDS011;70059;42.702;23.312;2023-12-20T15:51:49;253.40;;;96.20;;
80694;SDS011;70059;42.702;23.312;2023-12-20T15:54:14;261.25;;;95.90;;
80694;SDS011;70059;42.702;23.312;2023-12-20T15:56:40;260.75;;;99.82;;
80694;SDS011;70059;42.702;23.312;2023-12-20T15:59:07;259.77;;;97.40;;
80694;SDS011;70059;42.702;23.312;2023-12-20T16:01:34;250.18;;;97.45;;
80694;SDS011;70059;42.702;23.312;2023-12-20T16:04:00;273.13;;;96.90;;
80694;SDS011;70059;42.702;23.312;2023-12-20T16:06:26;266.00;;;101.22;;
80694;SDS011;70059;42.702;23.312;2023-12-20T16:08:52;257.60;;;100.32;;
80694;SDS011;70059;42.702;23.312;2023-12-20T16:11:18;243.95;;;97.43;;
80694;SDS011;70059;42.702;23.312;2023-12-20T16:13:46;234.57;;;92.82;;
80694;SDS011;70059;42.702;23.312;2023-12-20T16:16:12;226.50;;;89.75;;
80694;SDS011;70059;42.702;23.312;2023-12-20T16:18:37;219.73;;;91.28;;
80694;SDS011;70059;42.702;23.312;2023-12-20T16:21:03;255.65;;;95.70;;
80694;SDS011;70059;42.702;23.312;2023-12-20T16:23:29;248.23;;;89.95;;
80694;SDS011;70059;42.702;23.312;2023-12-20T16:29:09;230.23;;;83.90;;
80694;SDS011;70059;42.702;23.312;2023-12-20T16:31:40;245.05;;;87.53;;
80694;SDS011;70059;42.702;23.312;2023-12-20T16:34:09;249.05;;;88.00;;
80694;SDS011;70059;42.702;23.312;2023-12-20T16:36:50;231.95;;;82.95;;
80694;SDS011;70059;42.702;23.312;2023-12-20T16:39:18;260.73;;;89.65;;
80694;SDS011;70059;42.702;23.312;2023-12-20T16:41:45;241.30;;;84.75;;
80694;SDS011;70059;42.702;23.312;2023-12-20T16:44:11;251.13;;;84.25;;
80694;SDS011;70059;42.702;23.312;2023-12-20T16:46:36;264.27;;;90.30;;
80694;SDS011;70059;42.702;23.312;2023-12-20T16:49:04;252.52;;;83.63;;
80694;SDS011;70059;42.702;23.312;2023-12-20T16:51:29;280.33;;;91.20;;
80694;SDS011;70059;42.702;23.312;2023-12-20T16:53:55;232.88;;;83.45;;
80694;SDS011;70059;42.702;23.312;2023-12-20T16:56:22;281.27;;;87.47;;
80694;SDS011;70059;42.702;23.312;2023-12-20T16:58:47;234.20;;;84.35;;
80694;SDS011;70059;42.702;23.312;2023-12-20T17:01:14;277.23;;;89.90;;
80694;SDS011;70059;42.702;23.312;2023-12-20T17:03:40;271.27;;;85.32;;
80694;SDS011;70059;42.702;23.312;2023-12-20T17:06:09;247.95;;;81.72;;
80694;SDS011;70059;42.702;23.312;2023-12-20T17:08:38;278.90;;;85.10;;
80694;SDS011;70059;42.702;23.312;2023-12-20T17:11:04;275.25;;;90.72;;
80694;SDS011;70059;42.702;23.312;2023-12-20T17:13:31;269.48;;;86.90;;
80694;SDS011;70059;42.702;23.312;2023-12-20T17:15:58;313.00;;;83.95;;
80694;SDS011;70059;42.702;23.312;2023-12-20T17:18:25;264.33;;;80.18;;